Latest Weather Observations for Kingaroy

IDQ60801

Issued at 10:02 am EST Monday 29 August 2016 (issued every 30 minutes, with the page automatically refreshed every 10 minutes)

About weather observations | Map of weather stations | Latest weather observations for QLD | Other Formats
Station Details ID: 040922 Name: KINGAROY AIRPORT Lat: -26.57 Lon: 151.84 Height: 433.67 m
Data from the previous 72 hours. | See also: Recent months at Kingaroy
Date/Time
EST
Temp
°C
App
Temp
°C
Dew
Point
°C
Rel
Hum
%
Delta-T
°C
Wind Press
QNH
hPa
Press
MSL
hPa
Rain since
9am
mm
Dir  Spd
km/h
Gust
km/h
Spd
kts
Gust
kts
29/10:00am 18.5 16.7 7.3 48 5.8 WNW 6 11 3 6 1027.0 1026.8 0.0
29/09:30am 17.6 16.5 10.7 64 3.8 NNE 7 11 4 6 1027.0 1026.8 0.0
29/09:00am 15.4 15.4 11.0 75 2.4 NNW 2 7 1 4 1027.1 1026.9 0.0
29/08:30am 12.8 12.4 9.6 81 1.7 WSW 2 7 1 4 1027.1 1026.9 0.0
29/08:00am 9.6 9.1 7.7 88 0.9 CALM 0 0 0 0 1026.6 1026.3 0.0
29/07:30am 7.6 6.9 6.9 95 0.3 CALM 0 0 0 0 1026.2 1025.9 0.0
29/07:00am 3.7 2.2 3.1 96 0.2 CALM 0 0 0 0 1026.1 1025.8 0.0
29/06:30am 3.0 0.6 2.3 95 0.3 SSE 4 7 2 4 1025.4 1025.2 0.0
29/06:00am 2.8 1.1 1.8 93 0.4 CALM 0 0 0 0 1024.8 1024.5 0.0
29/05:30am 3.2 1.2 2.5 95 0.3 ESE 2 7 1 4 1024.3 1024.0 0.0
29/05:00am 3.4 0.7 2.5 94 0.4 ESE 6 7 3 4 1023.9 1023.6 0.0
29/04:30am 3.6 2.0 2.4 92 0.5 CALM 0 0 0 0 1024.0 1023.7 0.0
29/04:00am 4.1 2.6 2.9 92 0.5 CALM 0 0 0 0 1023.9 1023.6 0.0
29/03:30am 4.0 2.5 2.8 92 0.5 CALM 0 0 0 0 1023.8 1023.5 0.0
29/03:00am 4.8 3.0 3.5 91 0.6 S 2 6 1 3 1023.9 1023.6 0.0
29/02:30am 5.0 2.3 3.7 91 0.6 S 7 9 4 5 1023.9 1023.6 0.0
29/02:00am 4.8 1.7 3.5 91 0.6 S 9 11 5 6 1024.1 1023.8 0.0
29/01:30am 4.5 0.9 2.8 89 0.7 S 11 13 6 7 1024.1 1023.8 0.0
29/01:00am 6.7 4.9 5.2 90 0.7 ESE 4 7 2 4 1024.2 1023.9 0.0
29/12:30am 6.6 5.3 4.1 84 1.1 CALM 0 0 0 0 1024.5 1024.2 0.0
29/12:00am 6.6 5.3 4.1 84 1.1 CALM 0 0 0 0 1024.3 1024.0 0.0
 
Date/Time
EST
Temp
°C
App
Temp
°C
Dew
Point
°C
Rel
Hum
%
Delta-T
°C
Wind Press
QNH
hPa
Press
MSL
hPa
Rain since
9am
mm
Dir  Spd
km/h
Gust
km/h
Spd
kts
Gust
kts
28/11:30pm 7.4 6.2 4.7 83 1.2 CALM 0 0 0 0 1024.4 1024.1 0.0
28/11:00pm 7.2 5.8 3.6 78 1.6 CALM 0 0 0 0 1024.4 1024.1 0.0
28/10:30pm 8.6 7.2 3.8 72 2.1 CALM 0 0 0 0 1024.4 1024.1 0.0
28/10:00pm 7.8 5.3 3.5 74 1.9 S 6 7 3 4 1024.3 1024.0 0.0
28/09:30pm 8.4 5.9 3.7 72 2.1 ENE 6 7 3 4 1024.0 1023.7 0.0
28/09:00pm 9.3 6.6 3.9 69 2.4 E 7 13 4 7 1023.9 1023.6 0.0
28/08:30pm 9.9 8.6 3.9 66 2.7 CALM 0 0 0 0 1023.5 1023.3 0.0
28/08:00pm 9.5 6.2 4.5 71 2.3 S 11 13 6 7 1023.2 1023.0 0.0
28/07:30pm 11.0 9.7 4.0 62 3.2 CALM 0 2 0 1 1022.8 1022.5 0.0
28/07:00pm 11.9 10.2 4.2 59 3.5 ESE 2 7 1 4 1022.6 1022.3 0.0
28/06:30pm 13.4 10.8 4.3 54 4.3 E 7 9 4 5 1022.3 1022.0 0.0
28/06:00pm 15.5 12.8 3.6 45 5.6 E 7 9 4 5 1022.0 1021.7 0.0
28/05:30pm 18.9 15.9 1.0 30 8.2 NNW 6 7 3 4 1021.8 1021.5 0.0
28/05:00pm 20.2 17.2 0.6 27 9.0 NNW 6 9 3 5 1021.6 1021.3 0.0
28/04:30pm 20.9 18.0 1.7 28 9.0 ENE 6 9 3 5 1021.4 1021.1 0.0
28/04:00pm 20.8 17.0 1.6 28 9.0 N 11 15 6 8 1021.3 1021.0 0.0
28/03:30pm 21.3 18.3 2.1 28 9.1 ESE 7 11 4 6 1021.4 1021.1 0.0
28/03:00pm 21.0 17.9 0.2 25 9.5 E 6 13 3 7 1021.5 1021.2 0.0
28/02:30pm 21.2 17.9 2.5 29 9.0 SSW 9 13 5 7 1021.8 1021.5 0.0
28/02:00pm 21.0 18.3 3.7 32 8.4 N 7 13 4 7 1022.0 1021.7 0.0
28/01:30pm 20.1 17.3 2.9 32 8.2 WNW 7 17 4 9 1022.2 1021.9 0.0
28/01:00pm 19.7 16.1 3.0 33 8.0 W 11 13 6 7 1022.7 1022.4 0.0
28/12:30pm 19.0 15.4 3.2 35 7.6 SSW 11 20 6 11 1023.2 1023.0 0.0
28/12:00pm 18.5 14.5 2.8 35 7.4 SSE 13 17 7 9 1023.9 1023.6 0.0
28/11:30am 18.6 15.1 3.6 37 7.2 ESE 11 17 6 9 1024.4 1024.1 0.0
28/11:00am 18.9 15.6 4.7 39 7.0 E 11 19 6 10 1024.6 1024.3 0.0
28/10:30am 17.0 14.0 4.3 43 6.1 SSE 9 17 5 9 1025.0 1024.8 0.0
28/10:00am 16.3 13.0 4.4 45 5.7 SE 11 17 6 9 1025.2 1025.0 0.0
28/09:30am 16.6 14.1 6.4 51 5.1 SSE 9 13 5 7 1025.2 1025.0 0.0
28/09:00am 14.7 13.5 6.5 58 4.0 ENE 2 6 1 3 1025.3 1025.1 0.0
28/08:30am 11.1 10.3 6.5 73 2.2 CALM 0 6 0 3 1025.1 1024.9 0.0
28/08:00am 8.9 8.0 6.0 82 1.4 CALM 0 6 0 3 1024.9 1024.6 0.0
28/07:30am 5.9 4.8 4.9 93 0.4 CALM 0 0 0 0 1024.6 1024.3 0.0
28/07:00am 2.2 0.4 1.5 95 0.3 CALM 0 0 0 0 1024.3 1024.0 0.0
28/06:30am 1.4 -0.5 0.4 93 0.4 CALM 0 6 0 3 1023.5 1023.3 0.0
28/06:00am 1.2 -0.8 0.0 92 0.4 CALM 0 0 0 0 1023.0 1022.7 0.0
28/05:30am 1.5 -0.4 0.3 92 0.5 CALM 0 0 0 0 1022.9 1022.6 0.0
28/05:00am 1.1 -1.7 -0.4 90 0.6 W 4 9 2 5 1022.7 1022.4 0.0
28/04:30am 3.9 0.6 2.7 92 0.5 SSW 9 13 5 7 1022.3 1022.0 0.0
28/04:00am 2.3 0.5 1.1 92 0.5 CALM 0 0 0 0 1022.3 1022.0 0.0
28/03:30am 2.2 0.4 1.0 92 0.5 CALM 0 0 0 0 1022.3 1022.0 0.0
28/03:00am 1.4 -0.6 0.2 92 0.5 CALM 0 0 0 0 1022.5 1022.2 0.0
28/02:30am 2.0 0.1 0.8 92 0.5 CALM 0 0 0 0 1022.8 1022.5 0.0
28/02:00am 2.3 0.4 0.8 90 0.6 CALM 0 0 0 0 1023.1 1022.9 0.0
28/01:30am 2.3 0.4 0.4 87 0.7 CALM 0 0 0 0 1023.2 1023.0 0.0
28/01:00am 2.4 0.5 0.8 89 0.6 CALM 0 0 0 0 1022.9 1022.6 0.0
28/12:30am 2.7 0.8 0.6 86 0.8 CALM 0 0 0 0 1023.0 1022.7 0.0
28/12:00am 2.6 0.5 -0.5 80 1.2 CALM 0 0 0 0 1023.1 1022.9 0.0
 
Date/Time
EST
Temp
°C
App
Temp
°C
Dew
Point
°C
Rel
Hum
%
Delta-T
°C
Wind Press
QNH
hPa
Press
MSL
hPa
Rain since
9am
mm
Dir  Spd
km/h
Gust
km/h
Spd
kts
Gust
kts
27/11:30pm 3.3 1.5 0.9 84 0.9 CALM 0 0 0 0 1023.2 1023.0 0.0
27/11:00pm 3.4 1.5 0.5 81 1.1 CALM 0 0 0 0 1023.1 1022.9 0.0
27/10:30pm 3.9 2.1 1.1 82 1.1 CALM 0 0 0 0 1023.2 1023.0 0.0
27/10:00pm 4.2 2.3 0.4 76 1.5 CALM 0 0 0 0 1023.2 1023.0 0.0
27/09:30pm 4.7 2.8 0.7 75 1.6 CALM 0 0 0 0 1023.0 1022.7 0.0
27/09:00pm 5.3 3.4 0.7 72 1.8 CALM 0 0 0 0 1022.9 1022.6 0.0
27/08:30pm 6.6 4.8 0.9 67 2.3 CALM 0 0 0 0 1022.8 1022.5 0.0
27/08:00pm 7.1 5.3 1.2 66 2.4 CALM 0 0 0 0 1022.6 1022.3 0.0
27/07:30pm 6.8 5.0 0.9 66 2.4 CALM 0 0 0 0 1022.2 1021.9 0.0
27/07:00pm 8.3 5.1 0.5 58 3.2 SSE 7 9 4 5 1021.7 1021.4 0.0
27/06:30pm 9.5 6.4 0.1 52 3.9 SE 6 7 3 4 1021.4 1021.1 0.0
27/06:00pm 11.4 7.3 -0.1 45 4.8 SW 11 13 6 7 1021.0 1020.7 0.0
27/05:30pm 13.5 8.5 -0.9 37 6.0 SSW 15 22 8 12 1020.6 1020.3 0.0
27/05:00pm 15.2 9.5 -0.5 34 6.7 SSW 19 26 10 14 1020.3 1020.0 0.0
27/04:30pm 15.8 10.0 0.0 34 6.9 SW 20 28 11 15 1020.1 1019.8 0.0
27/04:00pm 16.4 9.4 -0.8 31 7.4 SSW 26 33 14 18 1019.8 1019.5 0.0
27/03:30pm 16.7 10.8 -0.9 30 7.6 SSW 20 28 11 15 1019.6 1019.3 0.0
27/03:00pm 17.2 11.5 -0.5 30 7.7 SW 19 24 10 13 1019.6 1019.3 0.0
27/02:30pm 16.5 10.5 -1.6 29 7.7 SW 20 30 11 16 1019.4 1019.1 0.0
27/02:00pm 16.2 10.2 -2.8 27 7.8 WSW 19 26 10 14 1019.6 1019.3 0.0
27/01:30pm 16.5 10.6 -1.1 30 7.5 WSW 20 30 11 16 1019.9 1019.6 0.0
27/01:00pm 16.1 11.5 -1.0 31 7.3 WSW 13 26 7 14 1020.1 1019.8 0.0
27/12:30pm 16.6 10.8 -1.5 29 7.7 SW 19 28 10 15 1020.5 1020.2 0.0
27/12:00pm 16.2 11.6 -1.4 30 7.5 SSW 13 22 7 12 1020.8 1020.5 0.0
27/11:30am 15.9 11.3 -1.2 31 7.3 SSW 13 20 7 11 1021.1 1020.9 0.0
27/11:00am 14.6 10.2 -2.3 31 6.9 SW 11 20 6 11 1021.5 1021.2 0.0
27/10:30am 14.7 10.1 -1.4 33 6.7 WSW 13 22 7 12 1021.6 1021.3 0.0
27/10:00am 14.5 9.0 -2.0 32 6.8 SSW 17 26 9 14 1021.6 1021.3 0.0
27/09:30am 13.7 8.9 -2.7 32 6.6 SSW 13 24 7 13 1021.9 1021.6 0.0
27/09:00am 11.9 8.6 0.1 44 5.0 SW 7 17 4 9 1022.0 1021.7 0.0
27/08:30am 10.9 7.1 2.0 54 3.9 SW 11 15 6 8 1021.9 1021.6 0.0
27/08:00am 8.7 6.7 2.3 64 2.7 W 2 7 1 4 1021.8 1021.5 0.0
27/07:30am 5.9 3.2 2.9 81 1.3 NNW 6 7 3 4 1021.4 1021.1 0.0
27/07:00am 2.9 -0.2 1.4 90 0.6 NNW 7 9 4 5 1021.0 1020.7 0.0
27/06:30am 2.4 -0.7 0.1 85 0.9 SE 6 7 3 4 1020.6 1020.3 0.0
27/06:00am 3.3 0.1 0.7 83 1.0 SW 7 11 4 6 1020.3 1020.0 0.0
27/05:30am 3.2 0.1 0.4 82 1.1 SSE 6 9 3 5 1020.0 1019.7 0.0
27/05:00am 3.6 -0.1 0.0 77 1.4 S 9 11 5 6 1019.8 1019.5 0.0
27/04:30am 4.8 0.9 0.9 76 1.6 SSE 11 15 6 8 1019.4 1019.1 0.0
27/04:00am 5.0 0.3 1.1 76 1.6 SSW 15 19 8 10 1019.1 1018.7 0.0
27/03:30am 6.1 0.8 1.6 73 1.9 SSW 19 26 10 14 1019.0 1018.6 0.0
27/03:00am 4.9 1.8 0.3 72 1.8 S 6 7 3 4 1019.0 1018.6 0.0
27/02:30am 4.7 1.7 0.7 75 1.6 SSW 6 9 3 5 1019.2 1018.9 0.0
27/02:00am 3.8 1.2 0.8 81 1.2 WSW 4 11 2 6 1019.2 1018.9 0.0
27/01:30am 4.2 1.1 0.2 75 1.6 SW 6 9 3 5 1019.1 1018.7 0.0
27/01:00am 4.4 0.8 0.6 76 1.5 SSW 9 11 5 6 1019.3 1019.0 0.0
27/12:30am 4.5 1.2 0.3 74 1.6 ESE 7 9 4 5 1019.5 1019.2 0.0
27/12:00am 6.2 2.5 0.1 65 2.4 SW 9 11 5 6 1019.9 1019.6 0.0
 
Date/Time
EST
Temp
°C
App
Temp
°C
Dew
Point
°C
Rel
Hum
%
Delta-T
°C
Wind Press
QNH
hPa
Press
MSL
hPa
Rain since
9am
mm
Dir  Spd
km/h
Gust
km/h
Spd
kts
Gust
kts
26/11:30pm 7.2 2.5 0.6 63 2.7 SW 15 20 8 11 1019.9 1019.6 0.0
26/11:00pm 6.9 2.6 1.0 66 2.4 WSW 13 19 7 10 1019.8 1019.5 0.0
26/10:30pm 4.7 2.5 0.8 76 1.6 WSW 2 7 1 4 1019.8 1019.5 0.0
26/10:00pm 5.1 2.0 -0.1 69 2.0 SW 6 11 3 6 1019.7 1019.4 0.0
26/09:30pm 7.5 3.9 0.3 60 2.9 WSW 9 13 5 7 1019.6 1019.3 0.0
26/09:00pm 8.2 3.8 0.4 58 3.2 WSW 13 19 7 10 1019.6 1019.3 0.0
26/08:30pm 8.8 4.4 0.3 55 3.5 SW 13 17 7 9 1019.2 1018.9 0.0
26/08:00pm 9.4 5.0 0.1 52 3.8 SW 13 19 7 10 1019.2 1018.9 0.0
26/07:30pm 9.7 5.2 -0.5 49 4.1 WSW 13 20 7 11 1018.9 1018.5 0.0
26/07:00pm 10.6 5.7 -0.8 45 4.6 SW 15 20 8 11 1018.8 1018.4 0.0
26/06:30pm 10.7 6.1 -1.0 44 4.8 WSW 13 17 7 9 1018.3 1018.0 0.0
26/06:00pm 11.8 6.4 -1.3 40 5.3 SW 17 26 9 14 1017.7 1017.4 0.0
26/05:30pm 12.7 6.7 -2.7 34 6.1 WSW 19 26 10 14 1017.5 1017.2 0.0
26/05:00pm 14.3 8.5 -1.3 34 6.5 WSW 19 28 10 15 1016.9 1016.5 0.0
26/04:30pm 14.9 8.5 -1.6 32 6.9 SW 22 32 12 17 1016.1 1015.8 0.0
26/04:00pm 15.6 9.6 -1.9 30 7.3 WSW 20 28 11 15 1015.7 1015.4 0.0
26/03:30pm 15.8 9.8 -1.7 30 7.4 SSW 20 33 11 18 1015.6 1015.3 0.0
26/03:00pm 16.6 10.7 -1.0 30 7.6 WSW 20 32 11 17 1015.5 1015.2 0.0
26/02:30pm 16.3 10.3 -3.2 26 8.0 W 19 32 10 17 1015.5 1015.2 0.0
26/02:00pm 17.0 11.7 -0.7 30 7.7 WSW 17 26 9 14 1015.4 1015.1 0.0
26/01:30pm 16.5 11.2 -0.7 31 7.4 WSW 17 26 9 14 1015.7 1015.4 0.0
26/01:00pm 16.1 11.1 -1.0 31 7.3 SW 15 24 8 13 1016.2 1015.9 0.0
26/12:30pm 16.0 10.6 -1.5 30 7.4 SSW 17 26 9 14 1016.5 1016.1 0.0
26/12:00pm 16.0 10.1 -2.5 28 7.7 SW 19 28 10 15 1017.0 1016.6 0.0
26/11:30am 15.7 9.2 -2.3 29 7.5 SSW 22 30 12 16 1017.3 1017.0 0.0
26/11:00am 15.2 8.4 -2.2 30 7.2 SSW 24 33 13 18 1017.7 1017.4 0.0
26/10:30am 14.5 7.6 -2.4 31 6.9 S 24 33 13 18 1018.2 1017.9 0.0

Other Formats:

Comma delimited format used in spreadsheet applications
http://www.bom.gov.au/fwo/IDQ60801/IDQ60801.94549.axf

JavaScript Object Notation format (JSON) in row-major order
http://www.bom.gov.au/fwo/IDQ60801/IDQ60801.94549.json